Latest Weather Observations for Mount Hotham

IDV60801

Issued at 2:52 pm EST Tuesday 29 September 2020 (issued every 10 minutes, with the page automatically refreshed every 10 minutes)

About weather observations | Map of weather stations | Latest weather observations for VIC | Other Formats
Station Details ID: 083085 Name: MOUNT HOTHAM Lat: -36.98 Lon: 147.13 Height: 1849.0 m
Data from the previous 72 hours. | See also: Recent months at Mount Hotham
Date/Time
EST
Temp
°C
App
Temp
°C
Dew
Point
°C
Rel
Hum
%
Delta-T
°C
Wind Press
QNH
hPa
Press
MSL
hPa
Rain since
9am
mm
Dir  Spd
km/h
Gust
km/h
Spd
kts
Gust
kts
29/02:30pm 4.6 -2.0 -0.6 69 2.2 NNW 24 37 13 20 - - 0.0
29/02:00pm 4.4 -2.2 -0.2 72 2.0 NNW 24 35 13 19 - - 0.0
29/01:30pm 4.3 -2.2 0.1 74 1.8 NNW 24 33 13 18 - - 0.0
29/01:00pm 4.0 -2.7 -1.0 70 2.1 NNW 24 32 13 17 - - 0.0
29/12:30pm 4.4 -2.8 -1.8 64 2.5 NNW 26 35 14 19 - - 0.0
29/12:00pm 4.0 -2.6 -0.2 74 1.8 NNW 24 35 13 19 - - 0.0
29/11:30am 3.7 -2.7 0.8 81 1.3 NNW 24 30 13 16 - - 0.0
29/11:00am 3.5 -2.6 0.7 82 1.2 NNW 22 28 12 15 - - 0.0
29/10:30am 4.1 -1.8 -2.1 64 2.5 NNW 19 26 10 14 - - 0.0
29/10:00am 3.8 -2.7 -6.2 48 3.6 NNW 20 26 11 14 - - 0.0
29/09:30am 2.7 -3.3 -1.6 73 1.7 NNW 20 26 11 14 - - 0.0
29/09:00am 1.9 -4.6 0.0 87 0.8 NNW 24 32 13 17 - - 0.0
29/08:30am 1.5 -5.9 -0.4 87 0.8 N 28 37 15 20 - - 0.0
29/08:00am 1.2 -6.3 0.9 98 0.1 NNW 30 35 16 19 - - 0.0
29/07:30am 1.4 -6.4 -0.5 87 0.8 NNW 30 35 16 19 - - 0.0
29/07:00am 1.3 -6.6 -1.8 80 1.2 NNW 30 37 16 20 - - 0.0
29/06:30am 1.1 -6.3 -3.4 72 1.8 NNW 26 30 14 16 - - 0.0
29/06:00am 0.7 -6.4 -4.1 70 1.8 NNW 24 28 13 15 - - 0.0
29/05:30am 0.9 -6.5 -3.9 70 1.8 NNW 26 30 14 16 - - 0.0
29/05:00am 0.9 -5.4 -3.7 71 1.8 NNW 20 24 11 13 - - 0.0
29/04:30am 1.6 -4.8 -6.7 54 3.0 NNW 19 24 10 13 - - 0.0
29/04:00am 2.6 -1.8 -5.5 55 3.1 NNW 9 13 5 7 - - 0.0
29/03:30am 1.7 -4.0 -3.6 68 2.1 NNW 17 22 9 12 - - 0.0
29/03:00am 1.1 -5.1 -3.0 74 1.6 NNW 20 24 11 13 - - 0.0
29/02:30am 1.6 -5.4 -3.1 71 1.9 NNW 24 26 13 14 - - 0.0
29/02:00am 1.7 -5.3 -3.6 68 2.1 NNW 24 24 13 13 - - 0.0
29/01:30am 1.6 -4.6 -2.9 72 1.8 NNW 20 26 11 14 - - 0.0
29/01:00am 1.5 -4.1 -2.8 73 1.7 N 17 19 9 10 - - 0.0
29/12:30am 1.5 -4.0 -2.1 77 1.4 N 17 19 9 10 - - 0.0
29/12:00am 1.0 -4.4 -1.6 83 1.1 N 17 19 9 10 - - 0.0
 
Date/Time
EST
Temp
°C
App
Temp
°C
Dew
Point
°C
Rel
Hum
%
Delta-T
°C
Wind Press
QNH
hPa
Press
MSL
hPa
Rain since
9am
mm
Dir  Spd
km/h
Gust
km/h
Spd
kts
Gust
kts
28/11:30pm 1.4 -3.5 -0.8 85 0.9 N 15 19 8 10 - - 0.0
28/11:00pm 1.9 -1.9 -0.8 82 1.1 N 9 11 5 6 - - 0.0
28/10:30pm 2.1 -1.3 -0.6 82 1.1 N 7 9 4 5 - - 0.0
28/10:00pm 2.7 -1.0 0.1 83 1.1 NE 9 11 5 6 - - 0.0
28/09:30pm 2.2 -1.0 -0.2 84 1.0 NE 6 7 3 4 - - 0.0
28/09:00pm 1.7 -0.8 1.4 98 0.1 NE 4 6 2 3 - - 0.0
28/08:30pm 1.9 -0.3 1.0 94 0.4 ESE 2 2 1 1 - - 0.0
28/08:00pm 1.9 -0.2 1.5 97 0.2 NNW 2 4 1 2 - - 0.0
28/07:30pm 2.0 -1.0 1.9 99 0.0 NW 7 9 4 5 - - 0.0
28/07:00pm 2.0 -1.0 1.9 99 0.0 NW 7 9 4 5 - - 0.0
28/06:30pm 2.1 -2.1 1.5 96 0.3 NW 13 15 7 8 - - 0.0
28/06:00pm 2.2 -2.1 1.3 94 0.4 NW 13 15 7 8 - - 0.0
28/05:30pm 3.5 -0.7 1.4 86 0.9 W 13 17 7 9 - - 0.0
28/05:00pm 4.1 0.5 0.8 79 1.4 WNW 9 13 5 7 - - 0.0
28/04:30pm 4.2 0.2 0.7 78 1.5 WNW 11 17 6 9 - - 0.0
28/04:00pm 4.2 -0.1 0.7 78 1.5 W 13 19 7 10 - - 0.0
28/03:30pm 4.0 -0.4 0.5 78 1.5 W 13 17 7 9 - - 0.0
28/03:00pm 3.9 0.0 1.4 84 1.1 W 11 19 6 10 - - 0.0
28/02:30pm 3.8 0.5 2.2 89 0.7 W 9 17 5 9 - - 0.0
28/02:00pm 3.6 0.1 1.5 86 0.9 WNW 9 13 5 7 - - 0.0
28/01:30pm 3.6 0.6 2.0 89 0.7 WNW 7 15 4 8 - - 0.0
28/01:00pm 3.0 -0.5 1.1 87 0.8 NW 9 15 5 8 - - 0.0
28/12:30pm 2.6 -1.4 0.8 88 0.8 WNW 11 17 6 9 - - 0.0
28/12:00pm 2.6 -0.7 0.0 83 1.1 W 7 11 4 6 - - 0.0
28/11:30am 2.3 -1.3 -2.2 72 1.8 SW 7 13 4 7 - - 0.0
28/11:00am 2.1 -1.8 -4.4 62 2.6 WSW 7 9 4 5 - - 0.0
28/10:30am 1.1 -2.0 -3.0 74 1.6 WSW 4 6 2 3 - - 0.0
28/10:00am 2.9 -2.4 -7.6 46 3.8 S 13 17 7 9 - - 0.0
28/09:30am 2.2 -3.4 -6.9 51 3.3 SSE 15 20 8 11 - - 0.0
28/09:00am 1.6 -4.9 -8.2 48 3.4 S 19 22 10 12 - - 0.0
28/08:30am 1.3 -4.1 -9.0 46 3.5 S 13 17 7 9 - - 0.0
28/08:00am 0.6 -6.0 -14.2 32 4.3 S 17 22 9 12 - - 0.0
28/07:30am -0.2 -7.1 -12.8 38 3.7 S 19 20 10 11 - - 0.0
28/07:00am 0.0 -7.0 -12.6 38 3.7 S 20 24 11 13 - - 0.0
28/06:30am 0.4 -6.3 -10.4 44 3.4 S 19 22 10 12 - - 0.0
28/06:00am -0.3 -7.0 -10.2 47 3.1 SSW 19 22 10 12 - - 0.0
28/05:30am -1.1 -7.5 -7.0 64 1.9 SSW 19 20 10 11 - - 0.0
28/05:00am -1.8 -8.1 -5.8 74 1.3 SSW 19 22 10 12 - - 0.0
28/04:30am -2.9 -9.4 -5.7 81 0.8 SSW 20 26 11 14 - - 0.0
28/04:00am -3.8 -10.0 -5.2 90 0.3 SSW 19 24 10 13 - - 0.0
28/03:30am -4.5 -10.8 -5.9 90 0.3 SW 19 22 10 12 - - 0.0
28/03:00am -4.2 -9.6 -4.3 99 -0.2 W 15 20 8 11 - - 0.0
28/02:30am -4.5 -9.9 -4.8 98 -0.1 WSW 15 19 8 10 - - 0.0
28/02:00am -4.5 -9.9 -4.6 99 -0.2 W 15 20 8 11 - - 0.0
28/01:30am -4.2 -9.2 -4.3 99 -0.2 W 13 17 7 9 - - 0.0
28/01:00am -4.9 -9.2 -5.2 98 -0.1 W 9 15 5 8 - - 0.0
28/12:30am -5.8 -11.0 -6.3 96 -0.1 WSW 13 20 7 11 - - 0.0
28/12:00am -5.7 -11.3 -6.2 96 -0.1 SW 15 20 8 11 - - 0.0
 
Date/Time
EST
Temp
°C
App
Temp
°C
Dew
Point
°C
Rel
Hum
%
Delta-T
°C
Wind Press
QNH
hPa
Press
MSL
hPa
Rain since
9am
mm
Dir  Spd
km/h
Gust
km/h
Spd
kts
Gust
kts
27/11:30pm -5.1 -10.2 -5.4 98 -0.1 SW 13 17 7 9 - - 0.0
27/11:00pm -4.7 -8.4 -4.8 99 -0.2 WSW 6 9 3 5 - - 0.0
27/10:30pm -5.0 -9.3 -5.1 99 -0.2 SW 9 13 5 7 - - 0.0
27/10:00pm -3.0 -6.2 -3.1 99 -0.1 SW 4 7 2 4 - - 0.0
27/09:30pm -2.1 -5.5 -2.2 99 -0.1 WSW 6 7 3 4 - - 0.0
27/09:00pm -2.0 -5.4 -2.1 99 -0.1 W 6 7 3 4 - - 0.0
27/08:30pm -1.5 -4.8 -1.6 99 0.0 W 6 7 3 4 - - 0.0
27/08:00pm -2.3 -5.0 -2.4 99 -0.1 SW 2 4 1 2 - - 0.0
27/07:30pm -2.7 -6.2 -2.8 99 -0.1 S 6 9 3 5 - - 0.0
27/07:00pm -2.6 -6.1 -2.7 99 -0.1 SSW 6 7 3 4 - - 0.0
27/06:30pm -1.8 -4.8 -1.8 100 0.0 SSW 4 6 2 3 - - 0.0
27/06:00pm -0.5 -3.7 -0.5 100 0.0 WSW 6 7 3 4 - - 0.0
27/05:30pm -0.6 -4.0 -0.6 100 0.0 WSW 7 11 4 6 - - 0.0
27/05:00pm -0.2 -3.0 -0.2 100 0.0 SW 4 6 2 3 - - 0.0
27/04:30pm -0.2 -3.4 -0.2 100 0.0 WSW 6 9 3 5 - - 0.0
27/04:00pm -0.1 -3.2 -0.1 100 0.0 W 6 9 3 5 - - 0.0
27/03:30pm -0.2 -2.6 -0.2 100 0.0 NW 2 6 1 3 - - 0.0
27/03:00pm -0.2 -3.0 -0.2 100 0.0 N 4 7 2 4 - - 0.0
27/02:30pm -0.5 -2.6 -0.6 99 0.0 CALM 0 2 0 1 - - 0.0
27/02:00pm -1.4 -4.0 -1.5 99 0.0 S 2 7 1 4 - - 0.0
27/01:30pm -1.9 -4.9 -2.0 99 -0.1 SSW 4 6 2 3 - - 0.0
27/01:00pm -2.7 -6.2 -2.8 99 -0.1 S 6 9 3 5 - - 0.0
27/12:30pm -3.3 -6.9 -3.4 99 -0.1 S 6 13 3 7 - - 0.0
27/12:00pm -4.0 -8.6 -4.1 99 -0.1 SSE 11 19 6 10 - - 0.0
27/11:30am -4.3 -10.1 -4.4 99 -0.2 S 17 24 9 13 - - 0.0
27/11:00am -3.7 -7.9 -3.8 99 -0.1 S 9 17 5 9 - - 0.0
27/10:30am -4.2 -10.0 -4.3 99 -0.2 S 17 24 9 13 - - 0.0
27/10:00am -5.0 -12.6 -5.1 99 -0.2 SSE 26 32 14 17 - - 0.0
27/09:30am -5.2 -12.8 -5.3 99 -0.2 SSE 26 33 14 18 - - 0.0
27/09:00am -5.0 -12.2 -5.1 99 -0.2 SSE 24 33 13 18 - - 5.6
27/08:30am -4.8 -12.3 -4.9 99 -0.2 S 26 33 14 18 - - 5.6
27/08:00am -4.5 -12.0 -4.6 99 -0.2 S 26 33 14 18 - - 5.6
27/07:30am -4.2 -11.7 -4.3 99 -0.2 S 26 33 14 18 - - 5.6
27/07:00am -4.0 -11.8 -4.1 99 -0.1 S 28 35 15 19 - - 5.6
27/06:30am -3.6 -9.9 -3.7 99 -0.1 S 20 32 11 17 - - 5.6
27/06:00am -3.7 -9.8 -3.8 99 -0.1 SSW 19 28 10 15 - - 5.4
27/05:30am -3.7 -10.4 -3.8 99 -0.1 SSW 22 35 12 19 - - 5.4
27/05:07am -3.3 -11.4 -3.4 99 -0.1 SSW 30 48 16 26 - - 5.4
27/05:00am -3.3 -11.8 -3.4 99 -0.1 SSW 32 43 17 23 - - 5.4
27/04:30am -3.2 -12.3 -3.3 99 -0.1 SSW 35 44 19 24 - - 5.4
27/04:07am -3.2 -12.3 -3.3 99 -0.1 SSW 35 54 19 29 - - 5.4
27/04:00am -3.1 -12.5 -3.2 99 -0.1 SSW 37 48 20 26 - - 5.4
27/03:30am -3.1 -9.3 -3.2 99 -0.1 SW 20 35 11 19 - - 5.4
27/03:13am -3.1 -10.1 -3.2 99 -0.1 WSW 24 44 13 24 - - 5.4
27/03:00am -3.1 -8.0 -3.2 99 -0.1 WSW 13 19 7 10 - - 5.4
27/02:30am -3.1 -8.4 -3.2 99 -0.1 W 15 20 8 11 - - 5.2
27/02:00am -3.1 -9.3 -3.2 99 -0.1 WNW 20 35 11 19 - - 5.2
27/01:30am -3.1 -9.3 -3.2 99 -0.1 W 20 33 11 18 - - 5.0
27/01:00am -3.1 -9.3 -3.2 99 -0.1 W 20 28 11 15 - - 5.0
27/12:30am -3.1 -9.3 -3.2 99 -0.1 WSW 20 39 11 21 - - 5.0
27/12:00am -3.1 -8.7 -3.2 99 -0.1 W 17 22 9 12 - - 5.0
 
Date/Time
EST
Temp
°C
App
Temp
°C
Dew
Point
°C
Rel
Hum
%
Delta-T
°C
Wind Press
QNH
hPa
Press
MSL
hPa
Rain since
9am
mm
Dir  Spd
km/h
Gust
km/h
Spd
kts
Gust
kts
26/11:30pm -3.1 -8.4 -3.2 99 -0.1 W 15 24 8 13 - - 5.0
26/11:00pm -3.1 -8.7 -3.2 99 -0.1 W 17 20 9 11 - - 5.0
26/10:30pm -3.1 -8.7 -3.2 99 -0.1 W 17 22 9 12 - - 5.0
26/10:00pm -3.1 -9.7 -3.2 99 -0.1 WNW 22 32 12 17 - - 4.8
26/09:30pm -3.2 -10.2 -3.3 99 -0.1 WNW 24 35 13 19 - - 4.8
26/09:00pm -3.2 -11.3 -3.3 99 -0.1 W 30 43 16 23 - - 4.8
26/08:30pm -3.3 -10.7 -3.4 99 -0.1 NW 26 46 14 25 - - 4.8
26/08:03pm -3.3 -11.1 -3.4 99 -0.1 WNW 28 48 15 26 - - 4.8
26/08:00pm -3.3 -10.7 -3.4 99 -0.1 WNW 26 41 14 22 - - 4.8
26/07:40pm -3.3 -11.4 -3.4 99 -0.1 WNW 30 48 16 26 - - 4.8
26/07:30pm -3.2 -11.9 -3.3 99 -0.1 WNW 33 46 18 25 - - 4.8
26/07:00pm -3.1 -11.6 -3.2 99 -0.1 NW 32 54 17 29 - - 4.8
26/06:54pm -3.1 -11.8 -3.2 99 -0.1 NW 33 54 18 29 - - 4.8
26/06:30pm -3.1 -10.4 -3.2 99 -0.1 WNW 26 37 14 20 - - 4.8
26/06:00pm -3.1 -10.1 -3.2 99 -0.1 W 24 35 13 19 - - 4.8
26/05:30pm -2.8 -10.5 -2.9 99 -0.1 W 28 39 15 21 - - 4.8
26/05:00pm -2.6 -11.0 -2.7 99 -0.1 W 32 43 17 23 - - 4.6
26/04:30pm -2.3 -10.3 -2.4 99 -0.1 WNW 30 44 16 24 - - 4.6
26/04:00pm -2.4 -8.9 -2.5 99 -0.1 W 22 37 12 20 - - 4.4
26/03:30pm -2.2 -8.3 -2.3 99 -0.1 W 20 32 11 17 - - 4.4
26/03:00pm -2.5 -9.0 -2.6 99 -0.1 WSW 22 33 12 18 - - 4.4

Other formats

Comma delimited format used in spreadsheet applications
http://www.bom.gov.au/fwo/IDV60801/IDV60801.94906.axf

JavaScript Object Notation format (JSON) in row-major order
http://www.bom.gov.au/fwo/IDV60801/IDV60801.94906.json

Data quality

Most of these data are generated automatically and are frequently updated. Quality checks on data are not normally performed. It is possible for incorrect values to appear. Refer to information at About Latest Weather Observations and please check the disclaimer before using these data.